Time,TemperatureF,DewpointF,PressureIn,WindDirection,WindDirectionDegrees,WindSpeedMPH,WindSpeedGustMPH,Humidity,HourlyPrecipIn,Conditions,Clouds,dailyrainin,SolarRadiationWatts/m^2,SoftwareType,DateUTC
2013-08-26 00:11:00,57.0,38.0,29.99,SSW,195,22.0,-999.0,48,0.00,,,0.00,0.000000,,2013-08-26 07:11:00,
2013-08-26 01:42:00,58.0,40.0,29.99,SSW,212,33.0,39.0,51,0.00,,,0.00,0.000000,,2013-08-26 08:42:00,
2013-08-26 01:52:00,58.0,40.0,29.99,SSW,212,33.0,39.0,51,0.00,,,0.00,0.000000,,2013-08-26 08:52:00,
2013-08-26 02:02:00,58.0,40.0,29.99,SSW,212,33.0,39.0,51,0.00,,,0.00,0.000000,,2013-08-26 09:02:00,
2013-08-26 02:11:00,58.0,40.0,29.99,SSW,212,33.0,39.0,51,0.00,,,0.00,0.000000,,2013-08-26 09:11:00,
2013-08-26 02:43:00,59.0,46.0,30.00,SW,221,29.0,41.0,62,0.00,,,0.00,0.000000,,2013-08-26 09:43:00,
2013-08-26 03:42:00,57.0,47.0,30.01,SW,225,26.0,34.0,69,-99.99,,,0.00,0.000000,,2013-08-26 10:42:00,
2013-08-26 03:52:00,57.0,47.0,30.01,SW,225,26.0,34.0,69,-99.99,,,0.00,0.000000,,2013-08-26 10:52:00,
2013-08-26 04:02:00,57.0,47.0,30.01,SW,225,26.0,34.0,69,-99.99,,,0.00,0.000000,,2013-08-26 11:02:00,
2013-08-26 04:12:00,57.0,47.0,30.01,SW,225,26.0,34.0,69,-99.99,,,0.00,0.000000,,2013-08-26 11:12:00,
2013-08-26 04:42:00,53.0,47.0,30.02,SW,228,22.0,32.0,80,0.00,,,0.00,0.000000,,2013-08-26 11:42:00,
2013-08-26 04:52:00,53.0,47.0,30.02,SW,228,22.0,32.0,80,0.00,,,0.00,0.000000,,2013-08-26 11:52:00,
2013-08-26 05:01:00,53.0,47.0,30.02,SW,228,22.0,32.0,80,0.00,,,0.00,0.000000,,2013-08-26 12:01:00,
2013-08-26 05:12:00,53.0,47.0,30.02,SW,228,22.0,32.0,80,0.00,,,0.00,0.000000,,2013-08-26 12:12:00,
2013-08-26 05:42:00,54.0,41.0,30.03,WSW,258,20.0,27.0,62,0.00,,,0.00,0.000000,,2013-08-26 12:42:00,
2013-08-26 05:52:00,54.0,41.0,30.03,WSW,258,20.0,27.0,62,0.00,,,0.00,0.000000,,2013-08-26 12:52:00,
2013-08-26 06:02:00,54.0,41.0,30.03,WSW,258,20.0,27.0,62,0.00,,,0.00,0.000000,,2013-08-26 13:02:00,
2013-08-26 06:11:00,54.0,41.0,30.03,WSW,258,20.0,27.0,62,0.00,,,0.00,0.000000,,2013-08-26 13:11:00,
2013-08-26 06:42:00,57.0,43.0,30.04,WNW,285,15.0,21.0,60,0.00,,,0.00,0.000000,,2013-08-26 13:42:00,
2013-08-26 06:52:00,57.0,43.0,30.04,WNW,285,15.0,21.0,60,0.00,,,0.00,0.000000,,2013-08-26 13:52:00,
2013-08-26 07:02:00,57.0,43.0,30.04,WNW,285,15.0,21.0,60,0.00,,,0.00,0.000000,,2013-08-26 14:02:00,
2013-08-26 07:11:00,57.0,43.0,30.04,WNW,285,15.0,21.0,60,0.00,,,0.00,0.000000,,2013-08-26 14:11:00,
2013-08-26 09:48:00,65.0,45.0,30.08,NE,44,2.0,12.0,49,-99.99,,,0.00,174.000000,,2013-08-26 16:48:00,
2013-08-26 10:43:00,66.0,47.0,30.08,ENE,78,3.0,8.0,51,-99.99,,,0.00,230.000000,,2013-08-26 17:43:00,
2013-08-26 10:53:00,66.0,47.0,30.08,ENE,78,3.0,8.0,51,-99.99,,,0.00,230.000000,,2013-08-26 17:53:00,
2013-08-26 11:01:00,66.0,47.0,30.08,ENE,78,3.0,8.0,51,-99.99,,,0.00,230.000000,,2013-08-26 18:01:00,
2013-08-26 11:12:00,66.0,47.0,30.08,ENE,78,3.0,8.0,51,-99.99,,,0.00,230.000000,,2013-08-26 18:12:00,
2013-08-26 11:42:00,65.0,53.0,30.08,WNW,293,4.0,9.0,65,0.00,,,0.00,235.000000,,2013-08-26 18:42:00,
2013-08-26 11:52:00,65.0,53.0,30.08,WNW,293,4.0,9.0,65,0.00,,,0.00,235.000000,,2013-08-26 18:52:00,
2013-08-26 12:01:00,65.0,53.0,30.08,WNW,293,4.0,9.0,65,0.00,,,0.00,235.000000,,2013-08-26 19:01:00,
2013-08-26 12:11:00,65.0,53.0,30.08,WNW,293,4.0,9.0,65,0.00,,,0.00,235.000000,,2013-08-26 19:11:00,
2013-08-26 12:42:00,66.0,51.0,30.08,NNE,17,4.0,8.0,59,0.00,,,0.00,226.000000,,2013-08-26 19:42:00,
2013-08-26 12:52:00,66.0,51.0,30.08,NNE,17,4.0,8.0,59,0.00,,,0.00,226.000000,,2013-08-26 19:52:00,
2013-08-26 13:02:00,66.0,51.0,30.08,NNE,17,4.0,8.0,59,0.00,,,0.00,226.000000,,2013-08-26 20:02:00,
2013-08-26 13:11:00,66.0,51.0,30.08,NNE,17,4.0,8.0,59,0.00,,,0.00,226.000000,,2013-08-26 20:11:00,
2013-08-26 13:43:00,67.0,48.0,30.08,NNW,345,5.0,11.0,51,0.00,,,0.00,197.000000,,2013-08-26 20:43:00,
2013-08-26 13:52:00,67.0,48.0,30.08,NNW,345,5.0,11.0,51,0.00,,,0.00,197.000000,,2013-08-26 20:52:00,
2013-08-26 14:01:00,67.0,48.0,30.08,NNW,345,5.0,11.0,51,0.00,,,0.00,197.000000,,2013-08-26 21:01:00,
2013-08-26 14:11:00,67.0,48.0,30.08,NNW,345,5.0,11.0,51,0.00,,,0.00,197.000000,,2013-08-26 21:11:00,
2013-08-26 14:44:00,70.0,43.0,30.08,SE,140,6.0,15.0,37,0.00,,,0.00,129.000000,,2013-08-26 21:44:00,
2013-08-26 14:55:00,70.0,43.0,30.08,SE,140,6.0,15.0,37,0.00,,,0.00,129.000000,,2013-08-26 21:55:00,
2013-08-26 15:07:00,70.0,43.0,30.08,SE,140,6.0,15.0,37,0.00,,,0.00,129.000000,,2013-08-26 22:07:00,
2013-08-26 15:16:00,70.0,43.0,30.08,SE,140,6.0,15.0,37,0.00,,,0.00,129.000000,,2013-08-26 22:16:00,
2013-08-26 15:42:00,69.0,44.0,30.06,WSW,254,3.0,14.0,40,0.00,,,0.00,64.000000,,2013-08-26 22:42:00,
2013-08-26 15:53:00,69.0,44.0,30.06,WSW,254,3.0,14.0,40,0.00,,,0.00,64.000000,,2013-08-26 22:53:00,
2013-08-26 16:03:00,69.0,44.0,30.06,WSW,254,3.0,14.0,40,0.00,,,0.00,64.000000,,2013-08-26 23:03:00,
2013-08-26 16:12:00,69.0,44.0,30.06,WSW,254,3.0,14.0,40,0.00,,,0.00,64.000000,,2013-08-26 23:12:00,
2013-08-26 16:42:00,68.0,42.0,30.05,NE,48,4.0,13.0,39,0.00,,,0.00,39.000000,,2013-08-26 23:42:00,
2013-08-26 16:52:00,68.0,42.0,30.05,NE,48,4.0,13.0,39,0.00,,,0.00,39.000000,,2013-08-26 23:52:00,
2013-08-26 17:01:00,68.0,42.0,30.05,NE,48,4.0,13.0,39,0.00,,,0.00,39.000000,,2013-08-27 00:01:00,
2013-08-26 17:11:00,68.0,42.0,30.05,NE,48,4.0,13.0,39,0.00,,,0.00,39.000000,,2013-08-27 00:11:00,
2013-08-26 17:42:00,68.0,39.0,30.04,SSE,159,4.0,14.0,35,0.00,,,0.00,29.000000,,2013-08-27 00:42:00,
2013-08-26 17:52:00,68.0,39.0,30.04,SSE,159,4.0,14.0,35,0.00,,,0.00,29.000000,,2013-08-27 00:52:00,
2013-08-26 18:01:00,68.0,39.0,30.04,SSE,159,4.0,14.0,35,0.00,,,0.00,29.000000,,2013-08-27 01:01:00,
2013-08-26 18:12:00,68.0,39.0,30.04,SSE,159,4.0,14.0,35,0.00,,,0.00,29.000000,,2013-08-27 01:12:00,